createdAt,value
2018-12-08T00:00:15.965Z,10.20
2018-12-08T00:02:44.321Z,10.30
2018-12-08T00:05:12.705Z,10.20
2018-12-08T00:07:40.960Z,10.10
2018-12-08T00:10:09.443Z,10.10
2018-12-08T00:12:38.070Z,10.00
2018-12-08T00:15:06.570Z,9.80
2018-12-08T00:17:34.846Z,9.60
2018-12-08T00:20:03.508Z,9.50
2018-12-08T00:22:31.955Z,9.40
2018-12-08T00:25:00.305Z,9.20
2018-12-08T00:27:28.674Z,9.20
2018-12-08T00:29:57.005Z,9.10
2018-12-08T00:32:25.356Z,9.10
2018-12-08T00:34:53.769Z,9.00
2018-12-08T00:37:22.206Z,9.00
2018-12-08T00:39:50.616Z,8.90
2018-12-08T00:42:18.993Z,8.80
2018-12-08T00:44:47.325Z,8.70
2018-12-08T00:47:16.083Z,8.60
2018-12-08T00:49:44.414Z,8.50
2018-12-08T00:52:12.789Z,8.40
2018-12-08T00:54:41.137Z,8.20
2018-12-08T00:57:09.551Z,8.10
2018-12-08T00:59:37.884Z,8.00
2018-12-08T01:02:06.350Z,7.90
2018-12-08T01:04:34.794Z,7.80
2018-12-08T01:07:03.213Z,7.70
2018-12-08T01:09:31.537Z,7.70
2018-12-08T01:11:59.910Z,7.70
2018-12-08T01:14:28.295Z,7.70
2018-12-08T01:16:56.683Z,7.70
2018-12-08T01:19:25.067Z,7.70
2018-12-08T01:21:53.437Z,7.60
2018-12-08T01:24:21.721Z,7.70
2018-12-08T01:26:50.162Z,7.70
2018-12-08T01:29:18.566Z,7.70
2018-12-08T01:31:46.979Z,7.90
2018-12-08T01:34:15.281Z,7.80
2018-12-08T01:36:43.553Z,7.90
2018-12-08T01:39:11.828Z,8.10
2018-12-08T01:41:40.161Z,8.20
2018-12-08T01:44:08.772Z,8.10
2018-12-08T01:46:37.034Z,8.10
2018-12-08T01:49:05.369Z,8.00
2018-12-08T01:51:33.864Z,8.00
2018-12-08T01:54:02.220Z,8.00
2018-12-08T01:56:30.784Z,8.00
2018-12-08T01:58:59.045Z,8.00
2018-12-08T02:01:27.603Z,8.00
2018-12-08T02:03:56.345Z,8.10
2018-12-08T02:06:24.629Z,8.10
2018-12-08T02:08:53.293Z,8.00
2018-12-08T02:11:25.001Z,7.90
2018-12-08T02:13:52.053Z,7.90
2018-12-08T02:16:20.521Z,7.80
2018-12-08T02:18:48.812Z,7.90
2018-12-08T02:21:17.205Z,7.90
2018-12-08T02:23:45.510Z,8.00
2018-12-08T02:26:13.892Z,8.00
2018-12-08T02:28:42.313Z,8.10
2018-12-08T02:31:10.632Z,8.10
2018-12-08T02:33:38.923Z,8.10
2018-12-08T02:36:07.556Z,8.10
2018-12-08T02:38:36.116Z,8.00
2018-12-08T02:41:04.513Z,7.90
2018-12-08T02:43:32.942Z,7.90
2018-12-08T02:46:01.224Z,7.70
2018-12-08T02:48:29.586Z,7.60
2018-12-08T02:50:57.867Z,7.60
2018-12-08T02:53:26.123Z,7.60
2018-12-08T02:55:54.713Z,7.60
2018-12-08T02:58:23.049Z,7.70
2018-12-08T03:00:51.320Z,8.10
2018-12-08T03:03:19.688Z,8.00
2018-12-08T03:05:47.982Z,8.10
2018-12-08T03:08:16.469Z,8.00
2018-12-08T03:10:44.936Z,8.30
2018-12-08T03:13:13.484Z,8.20
2018-12-08T03:15:41.797Z,8.10
2018-12-08T03:18:10.120Z,8.00
2018-12-08T03:20:38.535Z,7.90
2018-12-08T03:23:06.830Z,8.00
2018-12-08T03:25:35.153Z,8.10
2018-12-08T03:28:03.438Z,8.10
2018-12-08T03:30:31.888Z,8.20
2018-12-08T03:33:00.196Z,8.10
2018-12-08T03:35:30.103Z,8.20
2018-12-08T03:37:58.561Z,8.10
2018-12-08T03:40:26.831Z,8.20
2018-12-08T03:42:55.204Z,8.10
2018-12-08T03:45:23.574Z,7.90
2018-12-08T03:47:51.842Z,7.80
2018-12-08T03:50:20.233Z,7.90
2018-12-08T03:52:48.611Z,8.00
2018-12-08T03:55:17.214Z,8.00
2018-12-08T03:57:45.595Z,7.80
2018-12-08T04:00:14.181Z,7.80
2018-12-08T04:02:42.563Z,7.70
2018-12-08T04:05:10.821Z,7.70
2018-12-08T04:07:39.276Z,7.70
2018-12-08T04:10:07.727Z,7.70
2018-12-08T04:12:36.291Z,7.50
2018-12-08T04:15:05.237Z,7.30
2018-12-08T04:17:33.508Z,7.20
2018-12-08T04:20:01.802Z,7.20
2018-12-08T04:22:30.068Z,7.10
2018-12-08T04:24:58.457Z,7.10
2018-12-08T04:27:26.817Z,7.10
2018-12-08T04:29:55.260Z,7.10
2018-12-08T04:32:23.537Z,7.10
2018-12-08T04:34:51.807Z,7.00
2018-12-08T04:37:20.073Z,7.00
2018-12-08T04:39:48.368Z,7.10
2018-12-08T04:42:16.818Z,7.30
2018-12-08T04:44:45.237Z,7.40
2018-12-08T04:47:13.584Z,7.50
2018-12-08T04:49:41.874Z,7.50
2018-12-08T04:52:10.132Z,7.50
2018-12-08T04:54:38.558Z,7.50
2018-12-08T04:57:06.888Z,7.50
2018-12-08T04:59:35.165Z,7.40
2018-12-08T05:02:03.636Z,7.40
2018-12-08T05:04:32.210Z,7.50
2018-12-08T05:07:00.585Z,7.70
2018-12-08T05:09:28.880Z,7.80
2018-12-08T05:11:57.189Z,7.70
2018-12-08T05:14:25.508Z,7.40
2018-12-08T05:16:53.878Z,7.10
2018-12-08T05:19:23.043Z,7.00
2018-12-08T05:21:51.582Z,7.20
2018-12-08T05:24:19.834Z,7.20
2018-12-08T05:26:48.474Z,7.10
2018-12-08T05:29:16.780Z,7.00
2018-12-08T05:31:45.297Z,7.10
2018-12-08T05:34:13.602Z,7.30
2018-12-08T05:36:41.887Z,7.20
2018-12-08T05:39:10.271Z,7.20
2018-12-08T05:41:38.571Z,7.30
2018-12-08T05:44:06.984Z,7.20
2018-12-08T05:46:35.513Z,7.10
2018-12-08T05:49:04.390Z,6.90
2018-12-08T05:51:32.678Z,6.90
2018-12-08T05:54:00.992Z,6.90
2018-12-08T05:56:29.483Z,6.90
2018-12-08T05:58:57.884Z,6.80
2018-12-08T06:01:26.172Z,6.70
2018-12-08T06:03:54.577Z,6.70
2018-12-08T06:06:22.874Z,6.70
2018-12-08T06:08:51.482Z,6.60
2018-12-08T06:11:19.768Z,6.60
2018-12-08T06:13:48.152Z,6.60
2018-12-08T06:16:16.512Z,6.60
2018-12-08T06:21:41.279Z,7.00
2018-12-08T06:24:09.748Z,7.20
2018-12-08T06:26:53.691Z,7.10
2018-12-08T06:29:22.000Z,7.20
2018-12-08T06:31:50.332Z,7.10
2018-12-08T06:34:18.616Z,7.00
2018-12-08T06:36:46.981Z,7.20
2018-12-08T06:39:15.261Z,7.20
2018-12-08T06:41:43.618Z,7.00
2018-12-08T06:44:12.009Z,7.00
2018-12-08T06:46:40.309Z,7.00
2018-12-08T06:49:08.592Z,7.10
2018-12-08T06:51:37.012Z,7.00
2018-12-08T06:54:05.336Z,6.90
2018-12-08T06:56:35.304Z,6.90
2018-12-08T06:59:03.696Z,6.80
2018-12-08T07:01:32.037Z,7.10
2018-12-08T07:04:00.958Z,7.20
2018-12-08T07:06:29.373Z,7.30
2018-12-08T07:08:57.801Z,7.50
2018-12-08T07:11:26.081Z,7.40
2018-12-08T07:13:54.484Z,7.20
2018-12-08T07:16:22.769Z,7.30
2018-12-08T07:18:51.077Z,7.20
2018-12-08T07:21:19.364Z,7.00
2018-12-08T07:23:47.711Z,7.00
2018-12-08T07:26:16.237Z,7.20
2018-12-08T07:28:44.525Z,7.40
2018-12-08T07:31:12.824Z,7.40
2018-12-08T07:33:41.208Z,7.20
2018-12-08T07:36:09.471Z,7.20
2018-12-08T07:38:38.846Z,7.30
2018-12-08T07:41:07.211Z,7.40
2018-12-08T07:43:35.520Z,7.40
2018-12-08T07:46:03.827Z,7.30
2018-12-08T07:48:32.229Z,7.20
2018-12-08T07:51:00.529Z,7.20
2018-12-08T07:53:28.940Z,7.00
2018-12-08T07:55:57.303Z,7.00
2018-12-08T07:58:25.596Z,7.10
2018-12-08T08:00:53.877Z,7.10
2018-12-08T08:03:22.136Z,7.10
2018-12-08T08:05:50.536Z,6.90
2018-12-08T08:08:18.800Z,6.90
2018-12-08T08:10:47.045Z,7.10
2018-12-08T08:13:15.322Z,7.30
2018-12-08T08:15:43.654Z,7.40
2018-12-08T08:18:11.964Z,7.30
2018-12-08T08:20:40.399Z,7.20
2018-12-08T08:23:08.932Z,7.40
2018-12-08T08:25:37.184Z,7.40
2018-12-08T08:28:05.485Z,7.50
2018-12-08T08:30:33.859Z,7.40
2018-12-08T08:33:02.152Z,7.50
2018-12-08T08:35:30.446Z,7.40
2018-12-08T08:37:58.732Z,7.50
2018-12-08T08:40:27.101Z,7.60
2018-12-08T08:42:55.372Z,7.60
2018-12-08T08:45:23.634Z,7.40
2018-12-08T08:47:52.000Z,7.30
2018-12-08T08:50:20.387Z,7.20
2018-12-08T08:52:48.694Z,7.30
2018-12-08T08:55:16.976Z,7.50
2018-12-08T08:57:45.261Z,7.50
2018-12-08T09:00:13.745Z,7.40
2018-12-08T09:02:42.017Z,7.50
2018-12-08T09:05:10.486Z,7.80
2018-12-08T09:07:38.904Z,7.90
2018-12-08T09:10:10.635Z,7.90
2018-12-08T09:12:39.753Z,7.90
2018-12-08T09:15:09.126Z,7.90
2018-12-08T09:17:37.548Z,8.00
2018-12-08T09:20:08.380Z,8.10
2018-12-08T09:22:36.663Z,8.00
2018-12-08T09:25:05.660Z,8.00
2018-12-08T09:27:34.555Z,8.00
2018-12-08T09:30:03.144Z,8.00
2018-12-08T09:32:31.429Z,8.10
2018-12-08T09:34:59.777Z,8.00
2018-12-08T09:37:28.198Z,8.10
2018-12-08T09:39:57.171Z,8.10
2018-12-08T09:42:25.836Z,8.50
2018-12-08T09:44:54.140Z,8.40
2018-12-08T09:47:22.504Z,8.30
2018-12-08T09:49:50.779Z,8.10
2018-12-08T09:52:19.141Z,8.10
2018-12-08T09:54:47.579Z,8.20
2018-12-08T09:57:16.003Z,8.20
2018-12-08T09:59:44.462Z,8.30
2018-12-08T10:02:12.816Z,8.50
2018-12-08T10:04:41.075Z,8.60
2018-12-08T10:07:09.368Z,8.60
2018-12-08T10:09:37.645Z,8.50
2018-12-08T10:12:05.991Z,8.50
2018-12-08T10:14:34.249Z,8.60
2018-12-08T10:17:03.726Z,8.70
2018-12-08T10:19:31.981Z,8.80
2018-12-08T10:22:00.223Z,8.90
2018-12-08T10:24:28.579Z,9.00
2018-12-08T10:26:56.846Z,9.00
2018-12-08T10:29:25.656Z,8.80
2018-12-08T10:31:54.044Z,8.70
2018-12-08T10:34:22.631Z,8.70
2018-12-08T10:36:50.912Z,8.70
2018-12-08T10:39:19.247Z,8.60
2018-12-08T10:41:47.604Z,8.50
2018-12-08T10:44:15.862Z,8.60
2018-12-08T10:46:44.119Z,8.70
2018-12-08T10:49:12.412Z,8.70
2018-12-08T10:51:40.739Z,8.80
2018-12-08T10:54:09.076Z,8.70
2018-12-08T10:56:37.556Z,8.70
2018-12-08T10:59:05.816Z,8.60
2018-12-08T11:01:39.491Z,8.60
2018-12-08T11:04:07.759Z,8.50
2018-12-08T11:06:36.051Z,8.60
2018-12-08T11:09:06.424Z,8.70
2018-12-08T11:11:34.938Z,8.70
2018-12-08T11:14:03.541Z,8.70
2018-12-08T11:16:31.824Z,8.80
2018-12-08T11:19:00.117Z,8.80
2018-12-08T11:21:28.364Z,8.80
2018-12-08T11:23:57.206Z,8.90
2018-12-08T11:26:25.482Z,9.00
2018-12-08T11:28:53.731Z,9.10
2018-12-08T11:31:22.158Z,9.40
2018-12-08T11:33:50.788Z,9.40
2018-12-08T11:36:19.401Z,9.30
2018-12-08T11:38:48.308Z,9.40
2018-12-08T11:41:16.604Z,9.30
2018-12-08T11:43:45.080Z,9.30
2018-12-08T11:46:13.514Z,9.30
2018-12-08T11:48:42.112Z,9.20
2018-12-08T11:51:10.458Z,9.20
2018-12-08T11:53:38.894Z,9.20
2018-12-08T11:56:07.385Z,9.10
2018-12-08T11:58:35.689Z,9.20
2018-12-08T12:01:04.415Z,9.40
2018-12-08T12:03:32.684Z,9.60
2018-12-08T12:06:01.132Z,9.70
2018-12-08T12:08:29.448Z,9.80
2018-12-08T12:10:57.708Z,9.80
2018-12-08T12:13:26.054Z,9.80
2018-12-08T12:15:54.646Z,9.40
2018-12-08T12:18:23.139Z,9.20
2018-12-08T12:20:51.442Z,9.00
2018-12-08T12:23:19.720Z,9.00
2018-12-08T12:25:48.249Z,8.90
2018-12-08T12:28:16.542Z,8.80
2018-12-08T12:30:51.706Z,8.80
2018-12-08T12:33:20.162Z,8.80
2018-12-08T12:35:48.450Z,8.70
2018-12-08T12:38:16.761Z,8.70
2018-12-08T12:40:45.060Z,8.70
2018-12-08T12:43:13.306Z,8.70
2018-12-08T12:45:41.601Z,8.80
2018-12-08T12:48:09.868Z,8.80
2018-12-08T12:50:38.169Z,8.80
2018-12-08T12:53:06.411Z,8.80
2018-12-08T12:55:34.663Z,8.80
2018-12-08T12:58:02.928Z,8.80
2018-12-08T13:00:31.320Z,8.80
2018-12-08T13:02:59.601Z,8.90
2018-12-08T13:05:27.972Z,8.90
2018-12-08T13:07:56.245Z,8.90
2018-12-08T13:10:24.509Z,8.90
2018-12-08T13:12:52.778Z,8.80
2018-12-08T13:15:21.185Z,8.80
2018-12-08T13:17:49.628Z,8.80
2018-12-08T13:20:17.909Z,8.80
2018-12-08T13:22:46.166Z,8.80
2018-12-08T13:25:21.425Z,8.90
2018-12-08T13:27:49.807Z,8.90
2018-12-08T13:30:18.281Z,8.90
2018-12-08T13:32:46.541Z,9.00
2018-12-08T13:35:26.233Z,9.00
2018-12-08T13:37:54.491Z,9.00
2018-12-08T13:40:22.762Z,9.10
2018-12-08T13:42:51.089Z,9.10
2018-12-08T13:45:20.316Z,9.10
2018-12-08T13:47:48.680Z,9.10
2018-12-08T13:50:17.040Z,9.00
2018-12-08T13:52:45.314Z,9.00
2018-12-08T13:55:13.672Z,9.00
2018-12-08T13:57:41.951Z,8.90
2018-12-08T14:00:10.391Z,8.80
2018-12-08T14:02:38.707Z,8.60
2018-12-08T14:05:07.589Z,8.50
2018-12-08T14:07:36.476Z,8.30
2018-12-08T14:10:05.880Z,8.20
2018-12-08T14:12:34.273Z,8.10
2018-12-08T14:15:02.618Z,8.00
2018-12-08T14:17:30.985Z,8.00
2018-12-08T14:20:08.311Z,8.00
2018-12-08T14:22:36.570Z,8.00
2018-12-08T14:25:05.314Z,7.90
2018-12-08T14:27:33.693Z,7.80
2018-12-08T14:30:02.170Z,7.80
2018-12-08T14:32:30.452Z,7.70
2018-12-08T14:34:58.717Z,7.60
2018-12-08T14:37:27.405Z,7.60
2018-12-08T14:39:56.686Z,7.60
2018-12-08T14:42:24.996Z,7.50
2018-12-08T14:44:53.408Z,7.50
2018-12-08T14:47:21.750Z,7.50
2018-12-08T14:49:50.395Z,7.50
2018-12-08T14:52:18.671Z,7.40
2018-12-08T14:54:46.949Z,7.40
2018-12-08T14:57:15.249Z,7.50
2018-12-08T14:59:43.664Z,7.40
2018-12-08T15:02:12.059Z,7.40
2018-12-08T15:04:40.389Z,7.40
2018-12-08T15:07:08.671Z,7.40
2018-12-08T15:09:36.951Z,7.40
2018-12-08T15:12:05.366Z,7.50
2018-12-08T15:14:33.731Z,7.50
2018-12-08T15:17:02.098Z,7.50
2018-12-08T15:19:30.399Z,7.50
2018-12-08T15:21:58.660Z,7.40
2018-12-08T15:24:26.969Z,7.40
2018-12-08T15:26:55.225Z,7.40
2018-12-08T15:29:23.519Z,7.50
2018-12-08T15:31:51.975Z,7.40
2018-12-08T15:34:20.336Z,7.40
2018-12-08T15:36:48.657Z,7.30
2018-12-08T15:39:17.032Z,7.30
2018-12-08T15:41:45.533Z,7.30
2018-12-08T15:44:13.902Z,7.40
2018-12-08T15:46:42.695Z,7.30
2018-12-08T15:49:11.120Z,7.40
2018-12-08T15:51:39.481Z,7.40
2018-12-08T15:54:07.839Z,7.40
2018-12-08T15:56:36.268Z,7.40
2018-12-08T15:59:04.638Z,7.40
2018-12-08T16:01:33.383Z,7.40
2018-12-08T16:04:01.958Z,7.50
2018-12-08T16:06:30.601Z,7.50
2018-12-08T16:08:59.076Z,7.50
2018-12-08T16:11:27.751Z,7.50
2018-12-08T16:13:56.269Z,7.50
2018-12-08T16:16:24.878Z,7.60
2018-12-08T16:18:53.345Z,7.60
2018-12-08T16:21:22.011Z,7.60
2018-12-08T16:23:50.539Z,7.60
2018-12-08T16:26:19.059Z,7.60
2018-12-08T16:28:47.332Z,7.60
2018-12-08T16:31:15.671Z,7.70
2018-12-08T16:33:44.118Z,7.70
2018-12-08T16:36:12.637Z,7.70
2018-12-08T16:38:40.999Z,7.70
2018-12-08T16:41:09.263Z,7.80
2018-12-08T16:43:37.718Z,7.80
2018-12-08T16:46:06.382Z,7.80
2018-12-08T16:48:34.665Z,7.80
2018-12-08T16:51:02.948Z,7.90
2018-12-08T16:53:31.402Z,7.90
2018-12-08T16:55:59.839Z,7.90
2018-12-08T16:58:28.141Z,7.90
2018-12-08T17:00:56.508Z,7.90
2018-12-08T17:03:24.866Z,8.00
2018-12-08T17:05:53.216Z,8.00
2018-12-08T17:08:21.596Z,8.00
2018-12-08T17:10:50.033Z,8.00
2018-12-08T17:13:18.461Z,8.10
2018-12-08T17:15:46.754Z,8.00
2018-12-08T17:18:15.029Z,8.10
2018-12-08T17:20:43.385Z,8.10
2018-12-08T17:23:11.722Z,8.10
2018-12-08T17:25:40.504Z,8.10
2018-12-08T17:28:08.934Z,8.10
2018-12-08T17:30:37.212Z,8.20
2018-12-08T17:33:05.950Z,8.20
2018-12-08T17:35:34.315Z,8.20
2018-12-08T17:38:02.741Z,8.20
2018-12-08T17:40:31.355Z,8.20
2018-12-08T17:42:59.728Z,8.20
2018-12-08T17:45:28.190Z,8.30
2018-12-08T17:47:57.105Z,8.30
2018-12-08T17:50:26.106Z,8.30
2018-12-08T17:52:54.551Z,8.30
2018-12-08T17:55:23.151Z,8.40
2018-12-08T17:57:51.828Z,8.40
2018-12-08T18:00:20.505Z,8.40
2018-12-08T18:02:49.325Z,8.40
2018-12-08T18:05:17.970Z,8.40
2018-12-08T18:07:46.627Z,8.50
2018-12-08T18:10:15.754Z,8.50
2018-12-08T18:12:44.544Z,8.50
2018-12-08T18:15:12.955Z,8.50
2018-12-08T18:17:41.240Z,8.50
2018-12-08T18:20:09.768Z,8.50
2018-12-08T18:22:38.230Z,8.50
2018-12-08T18:25:06.749Z,8.50
2018-12-08T18:27:35.040Z,8.50
2018-12-08T18:30:03.453Z,8.50
2018-12-08T18:32:31.731Z,8.50
2018-12-08T18:35:00.034Z,8.50
2018-12-08T18:37:28.515Z,8.50
2018-12-08T18:39:56.852Z,8.50
2018-12-08T18:42:25.159Z,8.50
2018-12-08T18:44:53.583Z,8.50
2018-12-08T18:47:21.907Z,8.50
2018-12-08T18:49:50.176Z,8.50
2018-12-08T18:52:18.539Z,8.50
2018-12-08T18:54:46.815Z,8.50
2018-12-08T18:57:15.101Z,8.50
2018-12-08T18:59:43.532Z,8.50
2018-12-08T19:02:11.821Z,8.50
2018-12-08T19:04:40.125Z,8.50
2018-12-08T19:07:08.518Z,8.50
2018-12-08T19:09:36.807Z,8.50
2018-12-08T19:12:05.265Z,8.50
2018-12-08T19:14:33.612Z,8.50
2018-12-08T19:17:01.875Z,8.50
2018-12-08T19:19:30.319Z,8.40
2018-12-08T19:21:58.823Z,8.40
2018-12-08T19:24:27.107Z,8.40
2018-12-08T19:26:55.363Z,8.30
2018-12-08T19:29:23.743Z,8.40
2018-12-08T19:31:52.005Z,8.40
2018-12-08T19:34:20.284Z,8.30
2018-12-08T19:36:48.699Z,8.20
2018-12-08T19:39:17.050Z,8.10
2018-12-08T19:41:45.361Z,8.00
2018-12-08T19:44:13.719Z,7.90
2018-12-08T19:46:42.063Z,7.80
2018-12-08T19:49:10.338Z,7.80
2018-12-08T19:51:38.642Z,7.70
2018-12-08T19:54:06.969Z,7.60
2018-12-08T19:56:35.372Z,7.60
2018-12-08T19:59:03.776Z,7.60
2018-12-08T20:01:32.108Z,7.60
2018-12-08T20:04:00.535Z,7.70
2018-12-08T20:06:29.033Z,7.70
2018-12-08T20:08:57.474Z,7.70
2018-12-08T20:11:25.751Z,7.80
2018-12-08T20:13:54.795Z,7.80
2018-12-08T20:16:23.185Z,7.80
2018-12-08T20:18:51.455Z,7.80
2018-12-08T20:21:19.764Z,7.80
2018-12-08T20:23:48.052Z,7.80
2018-12-08T20:26:16.320Z,7.80
2018-12-08T20:28:44.624Z,7.70
2018-12-08T20:31:13.003Z,7.60
2018-12-08T20:33:41.285Z,7.60
2018-12-08T20:36:09.908Z,7.60
2018-12-08T20:38:38.187Z,7.50
2018-12-08T20:41:06.463Z,7.40
2018-12-08T20:43:34.763Z,7.40
2018-12-08T20:46:03.063Z,7.40
2018-12-08T20:48:31.395Z,7.40
2018-12-08T20:50:59.765Z,7.40
2018-12-08T20:53:28.162Z,7.30
2018-12-08T20:55:56.432Z,7.30
2018-12-08T20:58:24.983Z,7.30
2018-12-08T21:00:53.289Z,7.20
2018-12-08T21:03:21.593Z,7.10
2018-12-08T21:05:49.921Z,7.10
2018-12-08T21:08:18.276Z,7.00
2018-12-08T21:10:46.734Z,7.00
2018-12-08T21:13:15.047Z,7.00
2018-12-08T21:15:43.423Z,6.90
2018-12-08T21:18:11.764Z,6.80
2018-12-08T21:20:40.253Z,6.80
2018-12-08T21:23:08.547Z,6.80
2018-12-08T21:25:36.827Z,6.80
2018-12-08T21:28:05.147Z,6.70
2018-12-08T21:30:33.542Z,6.70
2018-12-08T21:33:01.818Z,6.70
2018-12-08T21:35:30.116Z,6.60
2018-12-08T21:37:58.364Z,6.70
2018-12-08T21:40:28.375Z,6.70
2018-12-08T21:42:56.771Z,6.70
2018-12-08T21:45:25.725Z,6.70
2018-12-08T21:47:53.997Z,6.70
2018-12-08T21:50:22.485Z,6.80
2018-12-08T21:52:50.774Z,6.70
2018-12-08T21:55:19.137Z,6.70
2018-12-08T21:57:47.573Z,6.70
2018-12-08T22:00:15.926Z,6.70
2018-12-08T22:02:44.229Z,6.60
2018-12-08T22:05:13.556Z,6.60
2018-12-08T22:07:41.919Z,6.60
2018-12-08T22:10:10.191Z,6.50
2018-12-08T22:12:38.490Z,6.60
2018-12-08T22:15:12.897Z,6.60
2018-12-08T22:17:41.304Z,6.60
2018-12-08T22:20:09.687Z,6.50
2018-12-08T22:22:38.067Z,6.50
2018-12-08T22:25:06.546Z,6.60
2018-12-08T22:27:34.905Z,6.50
2018-12-08T22:30:03.641Z,6.60
2018-12-08T22:32:31.957Z,6.60
2018-12-08T22:35:00.332Z,6.70
2018-12-08T22:37:29.149Z,6.70
2018-12-08T22:39:57.607Z,6.70
2018-12-08T22:42:25.956Z,6.80
2018-12-08T22:44:54.235Z,6.80
2018-12-08T22:47:22.560Z,6.80
2018-12-08T22:49:50.831Z,6.90
2018-12-08T22:52:19.111Z,7.00
2018-12-08T22:54:48.335Z,7.10
2018-12-08T22:57:16.653Z,7.20
2018-12-08T22:59:44.975Z,7.20
2018-12-08T23:02:13.523Z,7.30
2018-12-08T23:04:41.797Z,7.40
2018-12-08T23:07:10.131Z,7.40
2018-12-08T23:09:38.462Z,7.50
2018-12-08T23:12:06.936Z,7.50
2018-12-08T23:14:35.257Z,7.40
2018-12-08T23:17:03.648Z,7.40
2018-12-08T23:19:32.076Z,7.40
2018-12-08T23:22:00.396Z,7.40
2018-12-08T23:24:28.705Z,7.40
2018-12-08T23:26:57.066Z,7.40
2018-12-08T23:29:25.359Z,7.40
2018-12-08T23:31:53.984Z,7.40
2018-12-08T23:34:22.358Z,7.40
2018-12-08T23:36:50.635Z,7.50
2018-12-08T23:39:18.935Z,7.50
2018-12-08T23:41:47.333Z,7.50
2018-12-08T23:44:15.693Z,7.40
2018-12-08T23:46:44.022Z,7.50
2018-12-08T23:49:12.377Z,7.50
2018-12-08T23:51:40.640Z,7.50
2018-12-08T23:54:08.954Z,7.50
2018-12-08T23:56:37.239Z,7.50
2018-12-08T23:59:05.535Z,7.40
